Latest Weather Observations for Pearce

IDW60901

Issued at 9:01 am WST Monday 19 April 2021 (issued every 10 minutes, with the page automatically refreshed every 10 minutes)

About weather observations | Map of Perth area stations | Latest observations for Perth area | Other Formats
Station Details ID: 009053 Name: PEARCE RAAF Lat: -31.67 Lon: 116.02 Height: 40.0 m
Data from the previous 72 hours. | See also: Recent months at Pearce
Date/Time
WST
Temp
°C
App
Temp
°C
Dew
Point
°C
Rel
Hum
%
Delta-T
°C
Wind Press
QNH
hPa
Press
MSL
hPa
Rain since
9am
mm
Dir  Spd
km/h
Gust
km/h
Spd
kts
Gust
kts
19/08:30am 13.4 12.0 9.5 77 2.0 W 7 7 4 4 1021.0 1020.9 0.0
19/08:00am 12.6 12.4 9.2 80 1.7 CALM 0 0 0 0 1020.7 1020.5 0.0
19/07:30am 10.2 9.3 7.6 84 1.2 ESE 2 6 1 3 1020.6 1020.4 0.0
19/07:00am 8.7 7.8 6.0 83 1.2 CALM 0 0 0 0 1020.1 1019.9 0.0
19/06:30am 8.2 7.0 4.8 79 1.5 CALM 0 0 0 0 1020.0 1019.8 0.0
19/06:00am 10.5 8.7 7.9 84 1.3 SE 7 9 4 5 1020.0 1019.8 0.0
19/05:30am 8.9 8.1 6.3 84 1.2 CALM 0 0 0 0 1020.0 1019.8 0.0
19/05:00am 8.7 7.7 5.6 81 1.4 CALM 0 0 0 0 1019.6 1019.4 0.0
19/04:30am 9.1 8.2 6.0 81 1.4 CALM 0 0 0 0 1019.6 1019.4 0.0
19/04:00am 9.7 8.9 6.6 81 1.4 CALM 0 0 0 0 1019.4 1019.2 0.0
19/03:30am 10.0 9.2 6.7 80 1.5 CALM 0 0 0 0 1019.4 1019.2 0.0
19/03:00am 12.6 12.4 8.9 78 1.9 CALM 0 6 0 3 1019.3 1019.1 0.0
19/02:30am 10.5 9.9 7.2 80 1.6 CALM 0 0 0 0 1019.7 1019.5 0.0
19/02:11am 10.5 9.7 6.3 75 2.0 CALM 0 0 0 0 1019.7 1019.5 0.0
19/02:00am 10.9 10.1 6.5 74 2.1 CALM 0 0 0 0 1019.7 1019.5 0.0
19/01:30am 12.1 11.6 8.0 76 2.0 CALM 0 0 0 0 1020.0 1019.8 0.0
19/01:28am 12.0 11.5 7.9 76 2.0 CALM 0 0 0 0 1020.0 1019.8 0.0
19/01:00am 12.3 11.8 7.8 74 2.2 CALM 0 0 0 0 1020.1 1019.9 0.0
19/12:30am 13.5 13.2 8.6 72 2.5 CALM 0 0 0 0 1020.4 1020.2 0.0
19/12:00am 13.4 12.7 7.0 65 3.1 CALM 0 0 0 0 1020.5 1020.3 0.0
 
Date/Time
WST
Temp
°C
App
Temp
°C
Dew
Point
°C
Rel
Hum
%
Delta-T
°C
Wind Press
QNH
hPa
Press
MSL
hPa
Rain since
9am
mm
Dir  Spd
km/h
Gust
km/h
Spd
kts
Gust
kts
18/11:30pm 15.4 13.9 8.6 64 3.5 SSE 6 7 3 4 1020.7 1020.5 0.0
18/11:00pm 16.5 14.9 8.7 60 4.0 SSE 7 9 4 5 1021.1 1021.0 0.0
18/10:30pm 17.0 15.1 9.2 60 4.1 SSE 9 13 5 7 1021.3 1021.2 0.0
18/10:00pm 17.1 14.5 9.3 60 4.1 SSE 13 15 7 8 1021.4 1021.3 0.0
18/09:30pm 17.9 15.6 9.0 56 4.6 S 11 15 6 8 1021.3 1021.2 0.0
18/09:00pm 18.7 16.8 8.9 53 5.1 S 9 11 5 6 1021.1 1021.0 0.0
18/08:30pm 18.7 17.4 9.2 54 5.0 S 6 9 3 5 1021.3 1021.2 0.0
18/08:00pm 18.0 15.1 8.3 53 5.0 S 13 17 7 9 1021.3 1021.2 0.0
18/07:30pm 18.8 15.1 7.9 49 5.6 S 17 19 9 10 1021.0 1020.9 0.0
18/07:00pm 19.9 16.2 7.9 46 6.2 S 17 20 9 11 1020.9 1020.7 0.0
18/06:30pm 20.6 17.3 7.9 44 6.6 S 15 17 8 9 1020.7 1020.5 0.0
18/06:00pm 22.5 18.3 7.5 38 7.8 S 19 26 10 14 1020.4 1020.2 0.0
18/05:30pm 24.2 18.9 6.9 33 9.0 S 24 30 13 16 1020.1 1019.9 0.0
18/05:00pm 25.9 21.2 6.0 28 10.3 SSW 20 30 11 16 1019.7 1019.5 0.0
18/04:30pm 28.2 24.4 1.7 18 12.9 SSE 11 19 6 10 1019.7 1019.5 0.0
18/04:00pm 28.5 25.1 1.9 18 13.0 E 9 15 5 8 1019.7 1019.5 0.0
18/03:30pm 28.3 25.4 1.7 18 13.0 E 6 19 3 10 1019.7 1019.5 0.0
18/03:00pm 28.4 24.2 1.8 18 12.9 SE 13 20 7 11 1019.8 1019.6 0.0
18/02:30pm 28.8 25.4 2.1 18 13.1 NNE 9 17 5 9 1019.9 1019.7 0.0
18/02:00pm 28.6 25.2 2.0 18 13.0 SE 9 17 5 9 1020.3 1020.1 0.0
18/01:30pm 28.0 24.3 2.2 19 12.6 ESE 11 19 6 10 1020.7 1020.5 0.0
18/01:00pm 28.1 25.3 2.3 19 12.6 NNE 6 13 3 7 1021.4 1021.3 0.0
18/12:30pm 27.3 22.8 2.4 20 12.2 NNE 15 26 8 14 1021.9 1021.8 0.0
18/12:00pm 27.4 23.5 3.2 21 12.0 SE 13 19 7 10 1022.6 1022.5 0.0
18/11:30am 27.5 23.2 3.2 21 12.1 ENE 15 20 8 11 1023.0 1022.9 0.0
18/11:00am 26.5 22.3 3.7 23 11.3 ENE 15 22 8 12 1023.5 1023.4 0.0
18/10:30am 26.1 22.9 5.1 26 10.7 ENE 11 20 6 11 1023.7 1023.6 0.0
18/10:00am 24.7 20.3 5.0 28 9.9 ENE 17 24 9 13 1024.0 1023.9 0.0
18/09:30am 23.1 18.2 5.1 31 9.0 ENE 20 32 11 17 1024.2 1024.1 0.0
18/09:00am 21.9 17.6 5.3 34 8.2 E 17 28 9 15 1024.4 1024.3 0.0
18/08:30am 20.3 16.0 5.1 37 7.5 E 17 28 9 15 1024.9 1024.8 0.0
18/08:00am 18.4 14.1 5.3 42 6.3 E 17 24 9 13 1024.6 1024.5 0.0
18/07:30am 17.4 15.0 5.4 45 5.8 SE 7 11 4 6 1024.6 1024.5 0.0
18/07:00am 16.3 13.1 5.0 47 5.3 ESE 11 17 6 9 1024.3 1024.2 0.0
18/06:30am 16.2 13.5 5.5 49 5.1 E 9 19 5 10 1024.1 1024.0 0.0
18/06:00am 15.5 12.7 5.1 50 4.9 SSE 9 11 5 6 1024.3 1024.2 0.0
18/05:30am 16.2 13.7 4.9 47 5.4 SE 7 11 4 6 1024.0 1023.9 0.0
18/05:00am 15.9 13.1 5.2 49 5.1 SSE 9 13 5 7 1023.7 1023.6 0.0
18/04:30am 16.8 13.6 5.1 46 5.6 SE 11 15 6 8 1023.5 1023.4 0.0
18/04:00am 17.3 13.7 4.9 44 5.9 ESE 13 17 7 9 1023.4 1023.3 0.0
18/03:30am 18.2 14.6 5.1 42 6.3 ESE 13 20 7 11 1023.4 1023.3 0.0
18/03:00am 18.3 15.0 4.8 41 6.5 E 11 15 6 8 1023.5 1023.4 0.0
18/02:30am 18.9 14.9 5.0 40 6.7 ENE 15 22 8 12 1023.5 1023.4 0.0
18/02:00am 19.0 15.3 4.4 38 7.0 ENE 13 19 7 10 1023.8 1023.7 0.0
18/01:30am 19.6 15.9 4.5 37 7.3 E 13 20 7 11 1024.1 1024.0 0.0
18/01:00am 19.3 16.3 4.3 37 7.2 E 9 13 5 7 1024.3 1024.2 0.0
18/12:30am 19.6 15.8 4.1 36 7.4 ENE 13 19 7 10 1024.4 1024.3 0.0
18/12:00am 20.1 15.9 3.8 34 7.7 ENE 15 19 8 10 1024.3 1024.2 0.0
 
Date/Time
WST
Temp
°C
App
Temp
°C
Dew
Point
°C
Rel
Hum
%
Delta-T
°C
Wind Press
QNH
hPa
Press
MSL
hPa
Rain since
9am
mm
Dir  Spd
km/h
Gust
km/h
Spd
kts
Gust
kts
17/11:30pm 20.3 16.1 3.9 34 7.9 ENE 15 20 8 11 1024.3 1024.2 0.0
17/11:00pm 20.5 16.3 3.7 33 8.0 ENE 15 19 8 10 1024.5 1024.4 0.0
17/10:30pm 20.2 16.4 3.9 34 7.8 ENE 13 19 7 10 1024.8 1024.7 0.0
17/10:00pm 20.8 17.0 4.0 33 8.1 ENE 13 19 7 10 1024.9 1024.8 0.0
17/09:30pm 21.2 17.8 3.9 32 8.3 E 11 13 6 7 1025.0 1024.9 0.0
17/09:00pm 21.4 17.6 4.0 32 8.4 E 13 17 7 9 1024.8 1024.7 0.0
17/08:30pm 21.6 17.9 4.2 32 8.5 E 13 15 7 8 1024.6 1024.5 0.0
17/08:00pm 21.2 17.1 4.3 33 8.2 ESE 15 19 8 10 1024.6 1024.5 0.0
17/07:30pm 21.6 17.9 4.7 33 8.3 ESE 13 17 7 9 1024.5 1024.4 0.0
17/07:00pm 22.0 18.3 4.6 32 8.5 ESE 13 15 7 8 1024.2 1024.1 0.0
17/06:30pm 22.9 18.7 3.9 29 9.3 SE 15 19 8 10 1024.0 1023.9 0.0
17/06:00pm 24.1 19.6 4.0 27 9.9 SE 17 22 9 12 1023.7 1023.6 0.0
17/05:30pm 25.8 21.7 2.5 22 11.3 ESE 13 22 7 12 1023.5 1023.4 0.0
17/05:00pm 26.6 22.5 2.5 21 11.7 ESE 13 19 7 10 1023.2 1023.1 0.0
17/04:30pm 26.9 22.8 2.1 20 12.0 ENE 13 20 7 11 1023.1 1023.0 0.0
17/04:00pm 27.4 23.1 1.0 18 12.6 ENE 13 20 7 11 1023.0 1022.9 0.0
17/03:30pm 27.6 23.1 1.9 19 12.5 E 15 24 8 13 1023.0 1022.9 0.0
17/03:00pm 27.7 22.7 1.2 18 12.7 ESE 17 24 9 13 1023.2 1023.1 0.0
17/02:30pm 27.8 23.9 1.3 18 12.8 NE 11 17 6 9 1023.3 1023.2 0.0
17/02:00pm 27.6 23.7 1.2 18 12.6 E 11 20 6 11 1023.6 1023.5 0.0
17/01:30pm 27.3 22.4 1.7 19 12.4 ESE 17 24 9 13 1023.9 1023.8 0.0
17/01:00pm 26.8 23.4 2.0 20 12.0 ENE 9 24 5 13 1024.4 1024.3 0.0
17/12:30pm 26.8 22.7 2.0 20 12.0 ENE 13 20 7 11 1024.8 1024.7 0.0
17/12:00pm 27.1 23.1 4.8 24 11.3 ENE 15 22 8 12 1025.3 1025.2 0.0
17/11:30am 26.2 21.5 5.2 26 10.7 ENE 19 28 10 15 1025.5 1025.4 0.0
17/11:00am 25.6 21.4 5.8 28 10.1 NE 17 24 9 13 1025.7 1025.6 0.0
17/10:30am 23.9 18.4 5.8 31 9.2 NE 24 33 13 18 1025.9 1025.8 0.0
17/10:00am 23.7 18.7 6.5 33 8.8 ENE 22 32 12 17 1026.2 1026.1 0.0
17/09:30am 22.3 17.3 6.5 36 8.1 ENE 22 32 12 17 1026.3 1026.2 0.0
17/09:00am 20.4 15.1 6.7 41 6.9 ENE 24 35 13 19 1026.3 1026.2 0.0
17/08:30am 19.4 13.7 6.8 44 6.3 ENE 26 39 14 21 1026.3 1026.2 0.0
17/08:00am 18.3 13.1 7.1 48 5.6 ENE 24 35 13 19 1026.3 1026.2 0.0
17/07:30am 17.1 11.1 7.2 52 5.0 E 28 37 15 20 1026.0 1025.9 0.0
17/07:00am 16.7 11.1 7.1 53 4.8 E 26 37 14 20 1025.8 1025.7 0.0
17/06:30am 16.6 11.3 7.0 53 4.8 E 24 35 13 19 1025.5 1025.4 0.0
17/06:00am 17.1 12.6 6.9 51 5.0 E 20 30 11 16 1025.5 1025.4 0.0
17/05:30am 17.3 12.0 6.8 50 5.2 E 24 33 13 18 1025.4 1025.3 0.0
17/05:00am 17.5 12.2 7.0 50 5.2 E 24 33 13 18 1025.3 1025.2 0.0
17/04:30am 17.7 13.4 6.9 49 5.4 E 19 26 10 14 1025.5 1025.4 0.0
17/04:00am 17.8 14.6 7.0 49 5.4 E 13 22 7 12 1025.4 1025.3 0.0
17/03:30am 17.9 14.7 7.0 49 5.5 E 13 20 7 11 1025.4 1025.3 0.0
17/03:00am 18.1 13.8 6.9 48 5.6 E 19 26 10 14 1025.3 1025.2 0.0
17/02:30am 18.3 13.4 6.8 47 5.8 ENE 22 32 12 17 1025.3 1025.2 0.0
17/02:00am 18.2 13.3 6.7 47 5.7 E 22 33 12 18 1025.4 1025.3 0.0
17/01:30am 18.2 13.6 6.7 47 5.7 E 20 28 11 15 1025.6 1025.5 0.0
17/01:00am 18.3 13.8 6.8 47 5.7 ENE 20 30 11 16 1025.5 1025.4 0.0
17/12:30am 18.5 14.4 6.4 45 6.0 E 17 22 9 12 1025.7 1025.6 0.0
17/12:00am 18.7 14.7 6.5 45 6.0 E 17 20 9 11 1025.9 1025.8 0.0
 
Date/Time
WST
Temp
°C
App
Temp
°C
Dew
Point
°C
Rel
Hum
%
Delta-T
°C
Wind Press
QNH
hPa
Press
MSL
hPa
Rain since
9am
mm
Dir  Spd
km/h
Gust
km/h
Spd
kts
Gust
kts
16/11:30pm 18.6 14.9 6.4 45 6.1 E 15 20 8 11 1026.1 1026.0 0.0
16/11:00pm 19.0 14.9 6.2 43 6.3 E 17 28 9 15 1026.1 1026.0 0.0
16/10:30pm 19.6 15.0 6.4 42 6.6 E 20 28 11 15 1026.1 1026.0 0.0
16/10:00pm 20.1 15.7 6.5 41 6.8 E 19 26 10 14 1026.2 1026.1 0.0
16/09:30pm 20.3 17.0 6.3 40 7.0 E 13 19 7 10 1026.3 1026.2 0.0
16/09:00pm 20.6 16.7 6.9 41 6.9 ESE 17 20 9 11 1026.0 1025.9 0.0
16/08:30pm 20.5 16.9 6.8 41 7.0 ESE 15 19 8 10 1026.0 1025.9 0.0
16/08:00pm 20.2 16.5 6.5 41 6.9 ESE 15 17 8 9 1025.6 1025.5 0.0
16/07:30pm 20.5 17.7 6.8 41 7.0 ESE 11 13 6 7 1025.5 1025.4 0.0
16/07:00pm 21.1 17.8 6.2 38 7.5 SE 13 15 7 8 1024.9 1024.8 0.0
16/06:30pm 21.8 18.4 6.1 36 7.9 SE 13 17 7 9 1024.8 1024.7 0.0
16/06:00pm 23.0 19.2 5.9 33 8.6 SE 15 20 8 11 1024.4 1024.3 0.0
16/05:30pm 24.0 20.1 5.4 30 9.4 SE 15 22 8 12 1024.2 1024.1 0.0
16/05:00pm 25.1 21.1 4.8 27 10.2 SE 15 20 8 11 1024.0 1023.9 0.0
16/04:30pm 25.8 21.4 4.9 26 10.6 ESE 17 26 9 14 1023.9 1023.8 0.0
16/04:00pm 25.7 22.1 4.8 26 10.5 ESE 13 22 7 12 1023.9 1023.8 0.0
16/03:30pm 25.8 21.4 4.9 26 10.6 ESE 17 24 9 13 1023.9 1023.8 0.0
16/03:00pm 25.9 22.3 4.9 26 10.6 SE 13 22 7 12 1023.7 1023.6 0.0
16/02:30pm 25.6 22.0 5.2 27 10.4 ENE 13 20 7 11 1023.8 1023.7 0.0
16/02:00pm 25.5 21.2 5.1 27 10.3 ESE 17 22 9 12 1023.9 1023.8 0.0
16/01:30pm 25.1 21.3 5.8 29 9.9 E 15 22 8 12 1024.1 1024.0 0.0
16/01:00pm 24.8 21.7 7.4 33 9.1 NE 13 20 7 11 1024.6 1024.5 0.0
16/12:30pm 24.1 20.2 7.3 34 8.8 ENE 17 24 9 13 1025.1 1025.0 0.0
16/12:00pm 25.1 21.6 7.3 32 9.3 NE 15 26 8 14 1025.5 1025.4 0.0
16/11:30am 24.5 21.1 7.6 34 8.9 ENE 15 26 8 14 1025.9 1025.8 0.0
16/11:00am 23.3 20.7 7.8 37 8.1 NE 11 19 6 10 1026.2 1026.1 0.0
16/10:30am 21.8 19.3 8.0 41 7.2 NE 11 20 6 11 1026.3 1026.2 0.0
16/10:00am 21.2 17.5 8.1 43 6.8 ENE 17 30 9 16 1026.5 1026.4 0.0
16/09:30am 20.6 16.1 8.6 46 6.3 ENE 22 33 12 18 1026.6 1026.5 0.0

Latest Capital City Observations: Canberra | Sydney | Melbourne | Brisbane | Adelaide | Perth | Hobart | Darwin

Other formats

Comma delimited format used in spreadsheet applications
http://www.bom.gov.au/fwo/IDW60901/IDW60901.94612.axf

JavaScript Object Notation format (JSON) in row-major order
http://www.bom.gov.au/fwo/IDW60901/IDW60901.94612.json

Data quality

Most of these data are generated automatically and are frequently updated. Quality checks on data are not normally performed. It is possible for incorrect values to appear. Refer to information at About Latest Weather Observations and please check the disclaimer before using these data.